createdAt,value
2022-11-10T00:00:55.471Z,19.74
2022-11-10T00:03:58.887Z,19.74
2022-11-10T00:07:00.973Z,19.73
2022-11-10T00:10:06.816Z,19.73
2022-11-10T00:13:08.977Z,19.71
2022-11-10T00:16:29.923Z,19.72
2022-11-10T00:19:33.188Z,19.73
2022-11-10T00:22:36.351Z,19.72
2022-11-10T00:25:38.543Z,19.72
2022-11-10T00:28:40.788Z,19.72
2022-11-10T00:31:42.930Z,19.71
2022-11-10T00:34:45.017Z,19.70
2022-11-10T00:37:49.069Z,19.69
2022-11-10T00:40:51.079Z,19.68
2022-11-10T00:43:53.773Z,19.68
2022-11-10T00:46:55.809Z,19.68
2022-11-10T00:49:57.924Z,19.68
2022-11-10T00:52:59.922Z,19.68
2022-11-10T00:56:02.020Z,19.68
2022-11-10T00:59:04.053Z,19.66
2022-11-10T01:02:06.285Z,19.66
2022-11-10T01:05:08.624Z,19.66
2022-11-10T01:08:11.029Z,19.65
2022-11-10T01:11:22.708Z,19.65
2022-11-10T01:14:24.710Z,19.63
2022-11-10T01:17:26.730Z,19.63
2022-11-10T01:20:28.823Z,19.63
2022-11-10T01:23:30.973Z,19.61
2022-11-10T01:26:33.040Z,19.62
2022-11-10T01:29:35.243Z,19.61
2022-11-10T01:32:37.255Z,19.61
2022-11-10T01:35:39.437Z,19.61
2022-11-10T01:38:43.293Z,19.59
2022-11-10T01:41:45.305Z,19.59
2022-11-10T01:45:24.466Z,19.58
2022-11-10T01:48:46.765Z,19.58
2022-11-10T01:51:56.454Z,19.57
2022-11-10T01:54:58.615Z,19.57
2022-11-10T01:58:00.929Z,19.56
2022-11-10T02:01:02.948Z,19.55
2022-11-10T02:04:17.317Z,19.54
2022-11-10T02:07:21.177Z,19.55
2022-11-10T02:10:23.401Z,19.53
2022-11-10T02:13:25.943Z,19.53
2022-11-10T02:16:28.355Z,19.53
2022-11-10T02:19:30.447Z,19.52
2022-11-10T02:22:33.314Z,19.52
2022-11-10T02:25:36.088Z,19.51
2022-11-10T02:28:38.623Z,19.48
2022-11-10T02:31:41.129Z,19.50
2022-11-10T02:34:43.509Z,19.48
2022-11-10T02:37:45.605Z,19.47
2022-11-10T02:40:49.664Z,19.47
2022-11-10T02:43:53.392Z,19.48
2022-11-10T02:46:55.471Z,19.46
2022-11-10T02:49:57.482Z,19.45
2022-11-10T02:52:59.497Z,19.46
2022-11-10T02:56:01.530Z,19.44
2022-11-10T02:59:04.776Z,19.43
2022-11-10T03:02:06.775Z,19.44
2022-11-10T03:05:08.927Z,19.43
2022-11-10T03:08:10.945Z,19.43
2022-11-10T03:11:12.955Z,19.43
2022-11-10T03:14:15.119Z,19.42
2022-11-10T03:17:17.124Z,19.40
2022-11-10T03:20:19.776Z,19.40
2022-11-10T03:23:22.062Z,19.40
2022-11-10T03:26:24.385Z,19.40
2022-11-10T03:29:26.414Z,19.39
2022-11-10T03:32:28.625Z,19.38
2022-11-10T03:35:31.044Z,19.38
2022-11-10T03:38:33.076Z,19.39
2022-11-10T03:41:35.065Z,19.37
2022-11-10T03:44:37.084Z,19.36
2022-11-10T03:47:39.532Z,19.36
2022-11-10T03:50:42.280Z,19.35
2022-11-10T03:53:44.318Z,19.36
2022-11-10T03:56:46.371Z,19.33
2022-11-10T03:59:48.433Z,19.33
2022-11-10T04:02:50.443Z,19.31
2022-11-10T04:06:11.245Z,19.31
2022-11-10T04:09:13.338Z,19.32
2022-11-10T04:12:34.029Z,19.29
2022-11-10T04:15:42.047Z,19.31
2022-11-10T04:18:44.138Z,19.30
2022-11-10T04:21:46.185Z,19.28
2022-11-10T04:24:48.192Z,19.28
2022-11-10T04:27:50.196Z,19.27
2022-11-10T04:30:52.189Z,19.26
2022-11-10T04:33:55.290Z,19.27
2022-11-10T04:36:57.323Z,19.26
2022-11-10T04:39:59.336Z,19.26
2022-11-10T04:43:01.310Z,19.26
2022-11-10T04:46:03.908Z,19.25
2022-11-10T04:49:07.063Z,19.24
2022-11-10T04:52:09.120Z,19.25
2022-11-10T04:55:11.090Z,19.23
2022-11-10T04:58:14.008Z,19.23
2022-11-10T05:01:18.842Z,19.21
2022-11-10T05:04:20.892Z,19.23
2022-11-10T05:07:22.900Z,19.20
2022-11-10T05:10:25.734Z,19.20
2022-11-10T05:13:27.972Z,19.18
2022-11-10T05:16:30.026Z,19.18
2022-11-10T05:19:32.039Z,19.18
2022-11-10T05:22:34.117Z,19.18
2022-11-10T05:25:41.211Z,19.18
2022-11-10T05:28:44.820Z,19.18
2022-11-10T05:31:51.292Z,19.17
2022-11-10T05:34:53.607Z,19.17
2022-11-10T05:37:55.640Z,19.14
2022-11-10T05:40:57.670Z,19.15
2022-11-10T05:43:59.661Z,19.14
2022-11-10T05:47:01.673Z,19.14
2022-11-10T05:50:04.559Z,19.14
2022-11-10T05:53:06.589Z,19.14
2022-11-10T05:56:08.718Z,19.14
2022-11-10T05:59:10.702Z,19.13
2022-11-10T06:02:12.906Z,19.13
2022-11-10T06:05:14.937Z,19.12
2022-11-10T06:08:17.930Z,19.14
2022-11-10T06:11:20.482Z,19.12
2022-11-10T06:14:22.488Z,19.13
2022-11-10T06:17:27.374Z,19.12
2022-11-10T06:20:29.588Z,19.13
2022-11-10T06:23:31.737Z,19.14
2022-11-10T06:26:33.831Z,19.13
2022-11-10T06:29:35.868Z,19.14
2022-11-10T06:32:37.858Z,19.14
2022-11-10T06:35:39.893Z,19.14
2022-11-10T06:38:42.073Z,19.14
2022-11-10T06:41:44.199Z,19.15
2022-11-10T06:44:46.438Z,19.16
2022-11-10T06:47:48.674Z,19.18
2022-11-10T06:50:50.926Z,19.16
2022-11-10T06:53:52.934Z,19.18
2022-11-10T06:56:54.963Z,19.15
2022-11-10T06:59:56.946Z,19.15
2022-11-10T07:03:00.673Z,19.15
2022-11-10T07:06:02.863Z,19.16
2022-11-10T07:09:04.852Z,19.16
2022-11-10T07:12:07.016Z,19.18
2022-11-10T07:15:09.778Z,19.25
2022-11-10T07:18:11.758Z,19.31
2022-11-10T07:21:13.794Z,19.33
2022-11-10T07:24:15.828Z,19.39
2022-11-10T07:27:17.816Z,19.45
2022-11-10T07:30:19.894Z,19.52
2022-11-10T07:33:22.363Z,19.55
2022-11-10T07:36:25.078Z,19.56
2022-11-10T07:39:27.095Z,19.63
2022-11-10T07:42:29.147Z,19.67
2022-11-10T07:45:31.953Z,19.66
2022-11-10T07:48:33.988Z,19.71
2022-11-10T07:51:36.047Z,19.74
2022-11-10T07:54:38.061Z,19.73
2022-11-10T07:57:40.099Z,19.75
2022-11-10T08:00:42.951Z,19.74
2022-11-10T08:03:44.989Z,19.74
2022-11-10T08:06:47.180Z,19.75
2022-11-10T08:09:50.538Z,19.77
2022-11-10T08:13:00.648Z,19.77
2022-11-10T08:16:03.209Z,19.83
2022-11-10T08:19:05.214Z,19.86
2022-11-10T08:22:07.198Z,19.91
2022-11-10T08:25:09.455Z,19.91
2022-11-10T08:28:14.160Z,19.91
2022-11-10T08:31:16.254Z,19.89
2022-11-10T08:34:18.328Z,19.88
2022-11-10T08:37:20.341Z,19.88
2022-11-10T08:40:24.933Z,19.90
2022-11-10T08:43:28.151Z,19.90
2022-11-10T08:46:30.133Z,19.91
2022-11-10T08:49:32.321Z,19.92
2022-11-10T08:52:34.350Z,19.94
2022-11-10T08:55:36.594Z,19.92
2022-11-10T08:58:47.467Z,19.95
2022-11-10T09:01:52.318Z,19.94
2022-11-10T09:04:54.590Z,19.95
2022-11-10T09:07:56.606Z,19.95
2022-11-10T09:11:01.394Z,19.92
2022-11-10T09:14:03.391Z,19.92
2022-11-10T09:17:05.525Z,19.92
2022-11-10T09:20:09.164Z,19.95
2022-11-10T09:23:14.326Z,19.94
2022-11-10T09:26:16.376Z,19.95
2022-11-10T09:29:18.459Z,19.94
2022-11-10T09:32:20.549Z,19.92
2022-11-10T09:35:22.841Z,19.92
2022-11-10T09:38:25.285Z,19.94
2022-11-10T09:41:29.846Z,19.95
2022-11-10T09:44:38.335Z,19.95
2022-11-10T09:47:57.396Z,19.95
2022-11-10T09:51:05.370Z,19.96
2022-11-10T09:54:22.148Z,19.95
2022-11-10T09:57:26.773Z,19.92
2022-11-10T10:00:33.705Z,19.94
2022-11-10T10:03:38.279Z,19.94
2022-11-10T10:07:11.122Z,19.97
2022-11-10T10:10:23.880Z,19.95
2022-11-10T10:13:43.960Z,19.95
2022-11-10T10:16:54.843Z,19.97
2022-11-10T10:20:19.993Z,19.99
2022-11-10T10:24:07.305Z,19.96
2022-11-10T10:27:05.125Z,19.94
2022-11-10T10:30:18.307Z,19.99
2022-11-10T10:33:22.102Z,20.05
2022-11-10T10:36:27.717Z,20.04
2022-11-10T10:39:45.871Z,20.07
2022-11-10T10:43:06.202Z,20.01
2022-11-10T10:46:11.793Z,20.01
2022-11-10T10:49:31.809Z,20.03
2022-11-10T10:52:34.079Z,20.06
2022-11-10T10:55:38.102Z,20.06
2022-11-10T10:59:00.433Z,20.05
2022-11-10T11:02:02.541Z,20.09
2022-11-10T11:05:17.041Z,20.13
2022-11-10T11:08:25.605Z,20.14
2022-11-10T11:11:34.095Z,20.11
2022-11-10T11:14:36.223Z,20.13
2022-11-10T11:17:38.942Z,20.14
2022-11-10T11:20:46.162Z,20.14
2022-11-10T11:23:48.252Z,20.12
2022-11-10T11:26:53.277Z,20.11
2022-11-10T11:30:22.752Z,20.13
2022-11-10T11:33:38.142Z,20.18
2022-11-10T11:37:17.976Z,20.18
2022-11-10T11:40:37.932Z,20.18
2022-11-10T11:43:54.215Z,20.19
2022-11-10T11:47:18.248Z,20.20
2022-11-10T11:50:54.370Z,20.26
2022-11-10T11:54:29.668Z,20.24
2022-11-10T11:57:51.981Z,20.25
2022-11-10T12:01:11.862Z,20.28
2022-11-10T12:04:44.221Z,20.30
2022-11-10T12:07:54.258Z,20.34
2022-11-10T12:11:08.749Z,20.35
2022-11-10T12:14:48.318Z,20.39
2022-11-10T12:18:31.475Z,20.41
2022-11-10T12:21:50.237Z,20.46
2022-11-10T12:25:05.627Z,20.49
2022-11-10T12:28:22.567Z,20.51
2022-11-10T12:31:27.546Z,20.59
2022-11-10T12:34:36.129Z,20.61
2022-11-10T12:37:47.697Z,20.64
2022-11-10T12:40:54.013Z,20.66
2022-11-10T12:44:37.346Z,20.72
2022-11-10T12:47:43.349Z,20.36
2022-11-10T12:50:50.366Z,20.37
2022-11-10T12:53:53.342Z,20.58
2022-11-10T12:57:10.572Z,20.60
2022-11-10T13:00:34.461Z,20.66
2022-11-10T13:03:52.146Z,20.75
2022-11-10T13:07:00.766Z,20.80
2022-11-10T13:10:22.829Z,20.79
2022-11-10T13:13:25.172Z,20.88
2022-11-10T13:16:39.151Z,20.95
2022-11-10T13:19:41.141Z,20.99
2022-11-10T13:22:43.347Z,21.03
2022-11-10T13:25:57.757Z,21.05
2022-11-10T13:29:02.692Z,21.08
2022-11-10T13:32:25.836Z,21.11
2022-11-10T13:35:30.855Z,21.15
2022-11-10T13:38:32.955Z,21.16
2022-11-10T13:41:44.369Z,21.16
2022-11-10T13:44:47.766Z,21.18
2022-11-10T13:48:01.363Z,21.19
2022-11-10T13:51:10.664Z,21.19
2022-11-10T13:54:36.620Z,21.24
2022-11-10T13:57:41.227Z,21.25
2022-11-10T14:00:49.766Z,21.31
2022-11-10T14:03:58.804Z,21.29
2022-11-10T14:07:02.337Z,21.30
2022-11-10T14:10:10.702Z,21.31
2022-11-10T14:13:42.773Z,21.31
2022-11-10T14:16:45.153Z,21.30
2022-11-10T14:19:47.557Z,21.24
2022-11-10T14:22:50.930Z,21.13
2022-11-10T14:26:00.353Z,21.09
2022-11-10T14:29:27.231Z,21.03
2022-11-10T14:32:29.625Z,21.02
2022-11-10T14:35:36.013Z,21.00
2022-11-10T14:38:44.441Z,20.96
2022-11-10T14:41:51.138Z,20.96
2022-11-10T14:45:06.098Z,20.98
2022-11-10T14:48:18.881Z,20.93
2022-11-10T14:51:21.177Z,20.90
2022-11-10T14:54:27.040Z,20.87
2022-11-10T14:57:29.192Z,20.88
2022-11-10T15:00:36.085Z,20.89
2022-11-10T15:03:42.691Z,20.87
2022-11-10T15:06:47.458Z,20.84
2022-11-10T15:10:27.889Z,20.81
2022-11-10T15:13:36.218Z,20.79
2022-11-10T15:16:38.659Z,20.78
2022-11-10T15:19:46.896Z,20.77
2022-11-10T15:22:50.263Z,20.75
2022-11-10T15:25:53.401Z,20.76
2022-11-10T15:28:56.053Z,20.73
2022-11-10T15:31:58.143Z,20.71
2022-11-10T15:35:28.623Z,20.69
2022-11-10T15:38:32.098Z,20.68
2022-11-10T15:41:36.129Z,20.69
2022-11-10T15:44:38.210Z,20.68
2022-11-10T15:47:41.662Z,20.71
2022-11-10T15:50:48.719Z,20.70
2022-11-10T15:53:52.630Z,20.65
2022-11-10T15:56:54.733Z,20.63
2022-11-10T15:59:56.850Z,20.63
2022-11-10T16:02:59.364Z,20.60
2022-11-10T16:06:01.556Z,20.60
2022-11-10T16:09:04.107Z,20.59
2022-11-10T16:12:09.313Z,20.60
2022-11-10T16:15:19.313Z,20.58
2022-11-10T16:18:26.864Z,20.58
2022-11-10T16:21:29.502Z,20.61
2022-11-10T16:24:31.572Z,20.62
2022-11-10T16:27:36.019Z,20.63
2022-11-10T16:30:38.618Z,20.61
2022-11-10T16:33:41.445Z,20.61
2022-11-10T16:36:46.108Z,20.58
2022-11-10T16:39:48.186Z,20.59
2022-11-10T16:42:50.495Z,20.62
2022-11-10T16:45:55.567Z,20.61
2022-11-10T16:49:03.508Z,20.61
2022-11-10T16:52:14.306Z,20.59
2022-11-10T16:55:16.339Z,20.65
2022-11-10T16:58:18.874Z,20.63
2022-11-10T17:01:23.669Z,20.63
2022-11-10T17:04:25.795Z,20.62
2022-11-10T17:07:29.306Z,20.59
2022-11-10T17:10:31.492Z,20.61
2022-11-10T17:13:33.573Z,20.58
2022-11-10T17:16:38.254Z,20.54
2022-11-10T17:19:40.350Z,20.55
2022-11-10T17:22:42.501Z,20.54
2022-11-10T17:25:45.024Z,20.55
2022-11-10T17:28:47.188Z,20.54
2022-11-10T17:31:52.936Z,20.54
2022-11-10T17:34:55.012Z,20.55
2022-11-10T17:37:59.878Z,20.51
2022-11-10T17:41:01.931Z,20.53
2022-11-10T17:44:04.078Z,20.48
2022-11-10T17:47:06.147Z,20.50
2022-11-10T17:50:08.587Z,20.49
2022-11-10T17:53:25.663Z,20.49
2022-11-10T17:56:28.077Z,20.47
2022-11-10T17:59:30.111Z,20.47
2022-11-10T18:02:32.198Z,20.48
2022-11-10T18:05:34.835Z,20.48
2022-11-10T18:08:38.578Z,20.47
2022-11-10T18:11:40.724Z,20.43
2022-11-10T18:14:42.766Z,20.42
2022-11-10T18:17:45.126Z,20.40
2022-11-10T18:20:47.296Z,20.36
2022-11-10T18:23:49.312Z,20.39
2022-11-10T18:26:51.371Z,20.40
2022-11-10T18:29:54.131Z,20.37
2022-11-10T18:32:56.328Z,20.39
2022-11-10T18:36:01.922Z,20.37
2022-11-10T18:39:04.063Z,20.36
2022-11-10T18:42:06.131Z,20.37
2022-11-10T18:45:08.851Z,20.34
2022-11-10T18:48:10.979Z,20.34
2022-11-10T18:51:13.328Z,20.32
2022-11-10T18:54:15.428Z,20.31
2022-11-10T18:57:17.519Z,20.31
2022-11-10T19:00:20.086Z,20.29
2022-11-10T19:03:22.423Z,20.27
2022-11-10T19:06:25.022Z,20.27
2022-11-10T19:09:27.074Z,20.27
2022-11-10T19:12:29.504Z,20.26
2022-11-10T19:15:31.560Z,20.25
2022-11-10T19:18:34.596Z,20.22
2022-11-10T19:21:36.664Z,20.24
2022-11-10T19:25:00.809Z,20.22
2022-11-10T19:28:00.825Z,20.21
2022-11-10T19:31:05.039Z,20.19
2022-11-10T19:34:07.183Z,20.19
2022-11-10T19:37:09.216Z,20.19
2022-11-10T19:40:11.886Z,20.18
2022-11-10T19:43:13.929Z,20.18
2022-11-10T19:46:25.052Z,20.16
2022-11-10T19:49:27.113Z,20.17
2022-11-10T19:52:30.025Z,20.14
2022-11-10T19:55:32.510Z,20.15
2022-11-10T19:58:39.012Z,20.14
2022-11-10T20:01:41.143Z,20.13
2022-11-10T20:05:02.002Z,20.13
2022-11-10T20:08:12.474Z,20.14
2022-11-10T20:11:17.221Z,20.12
2022-11-10T20:14:19.229Z,20.12
2022-11-10T20:17:21.288Z,20.11
2022-11-10T20:20:23.310Z,20.11
2022-11-10T20:23:25.637Z,20.11
2022-11-10T20:26:27.923Z,20.11
2022-11-10T20:29:30.220Z,20.09
2022-11-10T20:32:33.614Z,20.10
2022-11-10T20:35:43.869Z,20.07
2022-11-10T20:38:45.958Z,20.07
2022-11-10T20:41:48.083Z,20.07
2022-11-10T20:44:50.141Z,20.07
2022-11-10T20:47:52.250Z,20.05
2022-11-10T20:50:54.347Z,20.06
2022-11-10T20:53:57.045Z,20.05
2022-11-10T20:56:59.876Z,20.05
2022-11-10T21:00:02.001Z,20.03
2022-11-10T21:03:04.115Z,20.04
2022-11-10T21:06:06.770Z,20.03
2022-11-10T21:09:08.989Z,20.03
2022-11-10T21:12:31.649Z,20.02
2022-11-10T21:15:38.301Z,20.01
2022-11-10T21:18:40.377Z,20.01
2022-11-10T21:21:42.479Z,20.01
2022-11-10T21:24:44.625Z,20.00
2022-11-10T21:27:47.937Z,20.00
2022-11-10T21:30:50.045Z,19.98
2022-11-10T21:33:55.812Z,19.98
2022-11-10T21:36:57.896Z,19.98
2022-11-10T21:39:59.980Z,19.96
2022-11-10T21:43:02.039Z,19.96
2022-11-10T21:46:06.649Z,19.97
2022-11-10T21:49:08.741Z,19.97
2022-11-10T21:52:10.780Z,19.95
2022-11-10T21:55:12.909Z,19.95
2022-11-10T21:58:14.948Z,19.94
2022-11-10T22:01:21.335Z,19.94
2022-11-10T22:04:23.405Z,19.92
2022-11-10T22:07:25.576Z,19.92
2022-11-10T22:10:46.393Z,19.92
2022-11-10T22:14:07.513Z,19.86
2022-11-10T22:17:34.087Z,19.86
2022-11-10T22:20:36.121Z,19.86
2022-11-10T22:23:56.803Z,19.86
2022-11-10T22:27:03.321Z,19.85
2022-11-10T22:30:05.784Z,19.84
2022-11-10T22:33:26.954Z,19.83
2022-11-10T22:36:29.198Z,19.83
2022-11-10T22:39:51.509Z,19.82
2022-11-10T22:43:12.237Z,19.81
2022-11-10T22:46:14.274Z,19.80
2022-11-10T22:49:17.362Z,19.81
2022-11-10T22:52:19.388Z,19.79
2022-11-10T22:55:21.424Z,19.80
2022-11-10T22:58:23.420Z,19.77
2022-11-10T23:01:25.571Z,19.76
2022-11-10T23:04:27.614Z,19.77
2022-11-10T23:07:29.715Z,19.75
2022-11-10T23:10:31.775Z,19.76
2022-11-10T23:13:35.639Z,19.75
2022-11-10T23:16:37.742Z,19.76
2022-11-10T23:19:39.838Z,19.74
2022-11-10T23:22:41.956Z,19.74
2022-11-10T23:25:43.977Z,19.73
2022-11-10T23:28:46.509Z,19.71
2022-11-10T23:31:48.492Z,19.70
2022-11-10T23:34:50.533Z,19.71
2022-11-10T23:37:52.536Z,19.70
2022-11-10T23:40:55.688Z,19.70
2022-11-10T23:43:57.879Z,19.67
2022-11-10T23:46:59.926Z,19.66
2022-11-10T23:50:01.929Z,19.66
2022-11-10T23:53:03.919Z,19.67
2022-11-10T23:56:13.349Z,19.65
2022-11-10T23:59:15.394Z,19.63
